Time,TemperatureF,DewpointF,PressureIn,WindDirection,WindDirectionDegrees,WindSpeedMPH,WindSpeedGustMPH,Humidity,HourlyPrecipIn,Conditions,Clouds,dailyrainin,SoftwareType,DateUTC
2013-07-31 00:00:00,66.0,58.9,30.04,SSE,152,0.0,0.0,78,0.00,,,0.00,Wunderground v.1.15,2013-07-31 04:00:00,
2013-07-31 00:05:00,66.0,59.3,30.04,SSE,152,0.0,0.0,79,0.00,,,0.00,Wunderground v.1.15,2013-07-31 04:05:00,
2013-07-31 00:15:00,65.7,59.0,30.04,SSE,153,0.0,0.0,79,0.00,,,0.00,Wunderground v.1.15,2013-07-31 04:15:00,
2013-07-31 00:20:00,65.6,59.3,30.04,SSE,152,0.0,0.0,80,0.00,,,0.00,Wunderground v.1.15,2013-07-31 04:20:00,
2013-07-31 00:30:00,65.4,59.1,30.04,SSE,153,0.0,0.0,80,0.00,,,0.00,Wunderground v.1.15,2013-07-31 04:30:00,
2013-07-31 00:35:00,65.3,59.0,30.04,SSE,153,0.0,0.0,80,0.00,,,0.00,Wunderground v.1.15,2013-07-31 04:35:00,
2013-07-31 00:40:00,65.2,59.2,30.03,SSE,153,0.0,0.0,81,0.00,,,0.00,Wunderground v.1.15,2013-07-31 04:40:00,
2013-07-31 00:50:00,65.0,59.4,30.03,SSE,153,0.0,0.0,82,0.00,,,0.00,Wunderground v.1.15,2013-07-31 04:50:00,
2013-07-31 00:55:00,64.9,59.3,30.04,SSE,153,0.0,0.0,82,0.00,,,0.00,Wunderground v.1.15,2013-07-31 04:55:00,
2013-07-31 01:05:00,64.9,59.3,30.03,SSE,153,0.0,0.0,82,0.00,,,0.00,Wunderground v.1.15,2013-07-31 05:05:00,
2013-07-31 01:15:00,64.8,59.2,30.03,SSE,152,0.0,0.0,82,0.00,,,0.00,Wunderground v.1.15,2013-07-31 05:15:00,
2013-07-31 01:25:00,64.7,59.8,30.03,SSE,152,0.0,0.0,84,0.00,,,0.00,Wunderground v.1.15,2013-07-31 05:25:00,
2013-07-31 01:30:00,64.5,59.9,30.03,SSE,153,0.0,0.0,85,0.00,,,0.00,Wunderground v.1.15,2013-07-31 05:30:00,
2013-07-31 01:40:00,64.2,59.6,30.03,SSE,153,0.0,0.0,85,0.00,,,0.00,Wunderground v.1.15,2013-07-31 05:40:00,
2013-07-31 01:45:00,64.0,59.7,30.03,SSE,153,0.0,0.0,86,0.00,,,0.00,Wunderground v.1.15,2013-07-31 05:45:00,
2013-07-31 01:55:00,63.6,59.3,30.03,SSE,152,0.0,0.0,86,0.00,,,0.00,Wunderground v.1.15,2013-07-31 05:55:00,
2013-07-31 02:05:00,63.4,59.5,30.03,SSE,152,0.0,0.0,87,0.00,,,0.00,Wunderground v.1.15,2013-07-31 06:05:00,
2013-07-31 02:15:00,63.0,59.1,30.03,SSE,152,0.0,0.0,87,0.00,,,0.00,Wunderground v.1.15,2013-07-31 06:15:00,
2013-07-31 02:25:00,62.7,58.8,30.03,SSE,153,0.0,0.0,87,0.00,,,0.00,Wunderground v.1.15,2013-07-31 06:25:00,
2013-07-31 02:35:00,62.9,59.3,30.03,SSE,153,0.0,0.0,88,0.00,,,0.00,Wunderground v.1.15,2013-07-31 06:35:00,
2013-07-31 09:40:00,72.5,62.2,30.09,East,96,0.0,1.0,70,0.00,,,0.00,Wunderground v.1.15,2013-07-31 13:40:00,
2013-07-31 09:50:00,72.8,60.8,30.09,East,93,1.0,1.0,66,0.00,,,0.00,Wunderground v.1.15,2013-07-31 13:50:00,
2013-07-31 10:00:00,73.1,61.9,30.09,East,98,1.0,1.0,68,0.00,,,0.00,Wunderground v.1.15,2013-07-31 14:00:00,
2013-07-31 10:05:00,73.5,62.3,30.08,East,99,0.0,1.0,68,0.00,,,0.00,Wunderground v.1.15,2013-07-31 14:05:00,
2013-07-31 10:15:00,74.1,60.7,30.08,East,94,1.0,1.0,63,0.00,,,0.00,Wunderground v.1.15,2013-07-31 14:15:00,
2013-07-31 10:25:00,74.5,60.6,30.08,SW,226,0.0,0.0,62,0.00,,,0.00,Wunderground v.1.15,2013-07-31 14:25:00,
2013-07-31 10:35:00,74.7,62.6,30.08,SW,236,0.0,1.0,66,0.00,,,0.00,Wunderground v.1.15,2013-07-31 14:35:00,
2013-07-31 10:45:00,75.0,61.5,30.07,ENE,78,0.0,0.0,63,0.00,,,0.00,Wunderground v.1.15,2013-07-31 14:45:00,
2013-07-31 10:55:00,75.3,60.5,30.07,East,82,0.0,0.0,60,0.00,,,0.00,Wunderground v.1.15,2013-07-31 14:55:00,
2013-07-31 11:05:00,75.7,60.8,30.07,East,99,0.0,4.0,60,0.00,,,0.00,Wunderground v.1.15,2013-07-31 15:05:00,
2013-07-31 11:10:00,75.8,60.0,30.07,East,98,1.0,1.0,58,0.00,,,0.00,Wunderground v.1.15,2013-07-31 15:10:00,
2013-07-31 11:20:00,76.6,59.7,30.07,ENE,69,0.0,0.0,56,0.00,,,0.00,Wunderground v.1.15,2013-07-31 15:20:00,
2013-07-31 11:30:00,77.0,60.1,30.07,ESE,104,0.0,1.0,56,0.00,,,0.00,Wunderground v.1.15,2013-07-31 15:30:00,
2013-07-31 11:35:00,76.7,60.3,30.06,ESE,117,1.0,1.0,57,0.00,,,0.00,Wunderground v.1.15,2013-07-31 15:35:00,
2013-07-31 11:45:00,76.8,60.4,30.07,ESE,119,0.0,1.0,57,0.00,,,0.00,Wunderground v.1.15,2013-07-31 15:45:00,
2013-07-31 11:55:00,77.0,61.6,30.06,SE,137,0.0,0.0,59,0.00,,,0.00,Wunderground v.1.15,2013-07-31 15:55:00,
2013-07-31 12:05:00,77.0,58.6,30.06,SE,140,0.0,0.0,53,0.00,,,0.00,Wunderground v.1.15,2013-07-31 16:05:00,
2013-07-31 12:41:00,77.9,59.9,30.05,West,275,1.0,1.0,54,0.00,,,0.00,Wunderground v.1.15,2013-07-31 16:41:00,
2013-07-31 12:50:00,78.7,60.7,30.05,WNW,299,0.0,1.0,54,0.00,,,0.00,Wunderground v.1.15,2013-07-31 16:50:00,
2013-07-31 13:00:00,78.5,59.9,30.05,ESE,113,0.0,0.0,53,0.00,,,0.00,Wunderground v.1.15,2013-07-31 17:00:00,
2013-07-31 13:05:00,77.8,61.3,30.05,ESE,114,0.0,0.0,57,0.00,,,0.00,Wunderground v.1.15,2013-07-31 17:05:00,
2013-07-31 13:15:00,77.5,61.1,30.04,SE,138,0.0,0.0,57,0.00,,,0.00,Wunderground v.1.15,2013-07-31 17:15:00,
2013-07-31 13:20:00,77.7,62.7,30.04,SE,137,0.0,0.0,60,0.00,,,0.00,Wunderground v.1.15,2013-07-31 17:20:00,
2013-07-31 13:25:00,77.9,61.4,30.04,SE,137,0.0,0.0,57,0.00,,,0.00,Wunderground v.1.15,2013-07-31 17:25:00,
2013-07-31 13:35:00,78.2,60.7,30.04,East,90,1.0,1.0,55,0.00,,,0.00,Wunderground v.1.15,2013-07-31 17:35:00,
2013-07-31 13:45:00,78.8,61.3,30.04,East,88,0.0,1.0,55,0.00,,,0.00,Wunderground v.1.15,2013-07-31 17:45:00,
2013-07-31 13:55:00,79.3,62.2,30.03,East,88,0.0,3.0,56,0.00,,,0.00,Wunderground v.1.15,2013-07-31 17:55:00,
2013-07-31 14:15:00,79.9,63.8,30.03,East,92,0.0,0.0,58,0.00,,,0.00,Wunderground v.1.15,2013-07-31 18:15:00,
2013-07-31 14:25:00,79.8,62.7,30.03,SW,233,0.0,0.0,56,0.00,,,0.00,Wunderground v.1.15,2013-07-31 18:25:00,
2013-07-31 14:30:00,79.3,61.7,30.03,SE,141,0.0,2.0,55,0.00,,,0.00,Wunderground v.1.15,2013-07-31 18:30:00,
2013-07-31 14:40:00,77.5,63.5,30.03,SE,142,0.0,0.0,62,0.00,,,0.00,Wunderground v.1.15,2013-07-31 18:40:00,
2013-07-31 14:50:00,75.6,64.3,30.03,SE,142,0.0,0.0,68,0.00,,,0.00,Wunderground v.1.15,2013-07-31 18:50:00,
2013-07-31 15:00:00,75.6,65.5,30.02,SE,141,0.0,0.0,71,0.00,,,0.00,Wunderground v.1.15,2013-07-31 19:00:00,
2013-07-31 15:10:00,78.2,62.7,30.02,SSE,152,0.0,0.0,59,0.00,,,0.00,Wunderground v.1.15,2013-07-31 19:10:00,
2013-07-31 15:20:00,80.0,62.4,30.02,ESE,117,0.0,0.0,55,0.00,,,0.00,Wunderground v.1.15,2013-07-31 19:20:00,
2013-07-31 15:30:00,80.4,63.3,30.01,ESE,117,0.0,0.0,56,0.00,,,0.00,Wunderground v.1.15,2013-07-31 19:30:00,
2013-07-31 15:40:00,80.8,65.1,30.01,NE,46,0.0,0.0,59,0.00,,,0.00,Wunderground v.1.15,2013-07-31 19:40:00,
2013-07-31 15:50:00,80.5,63.4,30.01,ENE,59,0.0,0.0,56,0.00,,,0.00,Wunderground v.1.15,2013-07-31 19:50:00,
2013-07-31 15:55:00,80.1,63.0,30.01,East,84,0.0,0.0,56,0.00,,,0.00,Wunderground v.1.15,2013-07-31 19:55:00,
2013-07-31 16:05:00,80.6,64.0,30.01,East,84,0.0,0.0,57,0.00,,,0.00,Wunderground v.1.15,2013-07-31 20:05:00,
2013-07-31 16:15:00,80.3,63.2,30.01,East,80,0.0,0.0,56,0.00,,,0.00,Wunderground v.1.15,2013-07-31 20:15:00,
2013-07-31 16:20:00,80.1,65.4,30.01,East,79,0.0,0.0,61,0.00,,,0.00,Wunderground v.1.15,2013-07-31 20:20:00,
2013-07-31 16:30:00,79.0,64.9,30.01,East,80,0.0,0.0,62,0.00,,,0.00,Wunderground v.1.15,2013-07-31 20:30:00,
2013-07-31 16:40:00,78.4,63.4,30.01,East,80,0.0,0.0,60,0.00,,,0.00,Wunderground v.1.15,2013-07-31 20:40:00,
2013-07-31 16:45:00,78.0,64.8,30.01,East,80,0.0,0.0,64,0.00,,,0.00,Wunderground v.1.15,2013-07-31 20:45:00,
2013-07-31 16:55:00,77.1,65.3,30.00,East,79,0.0,0.0,67,0.00,,,0.00,Wunderground v.1.15,2013-07-31 20:55:00,
2013-07-31 17:05:00,76.2,65.3,30.01,East,80,0.0,0.0,69,0.00,,,0.00,Wunderground v.1.15,2013-07-31 21:05:00,
2013-07-31 17:15:00,75.6,65.5,30.01,East,79,0.0,0.0,71,0.00,,,0.00,Wunderground v.1.15,2013-07-31 21:15:00,
2013-07-31 17:25:00,75.1,65.9,30.00,East,79,0.0,0.0,73,0.00,,,0.00,Wunderground v.1.15,2013-07-31 21:25:00,
2013-07-31 17:35:00,74.8,66.7,30.00,East,80,0.0,0.0,76,0.00,,,0.00,Wunderground v.1.15,2013-07-31 21:35:00,
2013-07-31 17:45:00,74.4,67.1,30.00,East,80,0.0,0.0,78,0.00,,,0.00,Wunderground v.1.15,2013-07-31 21:45:00,
2013-07-31 17:55:00,74.1,67.2,30.00,East,80,0.0,0.0,79,0.00,,,0.00,Wunderground v.1.15,2013-07-31 21:55:00,
2013-07-31 18:05:00,73.6,66.7,30.00,East,80,0.0,0.0,79,0.00,,,0.00,Wunderground v.1.15,2013-07-31 22:05:00,
2013-07-31 18:15:00,73.3,66.8,30.00,East,79,0.0,0.0,80,0.00,,,0.00,Wunderground v.1.15,2013-07-31 22:15:00,
2013-07-31 18:20:00,73.2,67.0,30.00,East,80,0.0,0.0,81,0.00,,,0.00,Wunderground v.1.15,2013-07-31 22:20:00,
2013-07-31 18:30:00,73.0,67.5,30.00,East,80,0.0,0.0,83,0.00,,,0.00,Wunderground v.1.15,2013-07-31 22:30:00,
2013-07-31 18:40:00,72.8,67.3,30.00,East,80,0.0,0.0,83,0.00,,,0.00,Wunderground v.1.15,2013-07-31 22:40:00,
2013-07-31 18:45:00,72.6,66.8,30.00,East,79,0.0,0.0,82,0.00,,,0.00,Wunderground v.1.15,2013-07-31 22:45:00,
2013-07-31 18:50:00,72.6,67.1,30.00,East,79,0.0,0.0,83,0.00,,,0.00,Wunderground v.1.15,2013-07-31 22:50:00,
2013-07-31 19:00:00,72.4,66.9,30.00,East,80,0.0,0.0,83,0.00,,,0.00,Wunderground v.1.15,2013-07-31 23:00:00,
2013-07-31 19:10:00,72.0,66.6,30.00,East,80,0.0,0.0,83,0.00,,,0.00,Wunderground v.1.15,2013-07-31 23:10:00,
2013-07-31 19:20:00,71.7,66.9,30.00,East,80,0.0,0.0,85,0.00,,,0.00,Wunderground v.1.15,2013-07-31 23:20:00,
2013-07-31 19:25:00,71.5,66.8,29.99,East,80,0.0,0.0,85,0.00,,,0.00,Wunderground v.1.15,2013-07-31 23:25:00,
2013-07-31 19:35:00,71.0,66.3,29.99,East,80,0.0,0.0,85,0.00,,,0.00,Wunderground v.1.15,2013-07-31 23:35:00,
2013-07-31 19:45:00,70.6,66.2,29.99,East,79,0.0,0.0,86,0.00,,,0.00,Wunderground v.1.15,2013-07-31 23:45:00,
2013-07-31 19:55:00,70.1,65.7,30.00,East,79,0.0,0.0,86,0.00,,,0.00,Wunderground v.1.15,2013-07-31 23:55:00,
2013-07-31 20:05:00,69.6,65.2,29.99,East,79,0.0,0.0,86,0.00,,,0.00,Wunderground v.1.15,2013-08-01 00:05:00,
2013-07-31 20:15:00,69.3,65.3,29.99,East,79,0.0,0.0,87,0.00,,,0.00,Wunderground v.1.15,2013-08-01 00:15:00,
2013-07-31 20:20:00,69.0,65.0,30.00,East,79,0.0,0.0,87,0.00,,,0.00,Wunderground v.1.15,2013-08-01 00:20:00,
2013-07-31 20:30:00,68.8,65.1,30.00,East,79,0.0,0.0,88,0.00,,,0.00,Wunderground v.1.15,2013-08-01 00:30:00,
2013-07-31 20:40:00,68.5,64.8,30.00,East,79,0.0,0.0,88,0.00,,,0.00,Wunderground v.1.15,2013-08-01 00:40:00,
2013-07-31 20:50:00,68.1,64.7,30.00,East,79,0.0,0.0,89,0.00,,,0.00,Wunderground v.1.15,2013-08-01 00:50:00,
2013-07-31 21:00:00,67.8,64.8,30.00,East,79,0.0,0.0,90,0.00,,,0.00,Wunderground v.1.15,2013-08-01 01:00:00,
2013-07-31 21:05:00,67.6,64.9,30.00,East,79,0.0,0.0,91,0.00,,,0.00,Wunderground v.1.15,2013-08-01 01:05:00,
2013-07-31 21:15:00,67.3,64.6,30.00,East,79,0.0,0.0,91,0.00,,,0.00,Wunderground v.1.15,2013-08-01 01:15:00,
2013-07-31 21:25:00,66.9,64.2,30.01,East,79,0.0,0.0,91,0.00,,,0.00,Wunderground v.1.15,2013-08-01 01:25:00,
2013-07-31 21:30:00,66.8,64.1,30.01,East,79,0.0,0.0,91,0.00,,,0.00,Wunderground v.1.15,2013-08-01 01:30:00,
2013-07-31 21:40:00,66.5,64.1,30.01,East,79,0.0,0.0,92,0.00,,,0.00,Wunderground v.1.15,2013-08-01 01:40:00,
2013-07-31 21:50:00,66.3,63.9,30.00,East,79,0.0,0.0,92,0.00,,,0.00,Wunderground v.1.15,2013-08-01 01:50:00,
2013-07-31 22:00:00,65.9,63.5,30.01,East,79,0.0,0.0,92,0.00,,,0.00,Wunderground v.1.15,2013-08-01 02:00:00,
2013-07-31 22:10:00,65.5,63.4,30.00,East,79,0.0,0.0,93,0.00,,,0.00,Wunderground v.1.15,2013-08-01 02:10:00,
2013-07-31 22:20:00,65.2,63.1,30.00,East,79,0.0,0.0,93,0.00,,,0.00,Wunderground v.1.15,2013-08-01 02:20:00,
2013-07-31 22:30:00,64.9,62.8,30.01,East,79,0.0,0.0,93,0.00,,,0.00,Wunderground v.1.15,2013-08-01 02:30:00,
2013-07-31 22:40:00,64.7,62.9,30.00,East,79,0.0,0.0,94,0.00,,,0.00,Wunderground v.1.15,2013-08-01 02:40:00,
2013-07-31 22:50:00,64.4,62.6,30.00,East,79,0.0,0.0,94,0.00,,,0.00,Wunderground v.1.15,2013-08-01 02:50:00,
2013-07-31 23:24:00,63.6,61.8,30.00,East,79,0.0,0.0,94,0.00,,,0.00,Wunderground v.1.15,2013-08-01 03:24:00,
2013-07-31 23:30:00,63.4,61.6,30.00,East,79,0.0,0.0,94,0.00,,,0.00,Wunderground v.1.15,2013-08-01 03:30:00,
2013-07-31 23:40:00,63.1,61.3,30.00,East,79,0.0,0.0,94,0.00,,,0.00,Wunderground v.1.15,2013-08-01 03:40:00,
2013-07-31 23:50:00,62.7,60.9,30.00,East,79,0.0,0.0,94,0.00,,,0.00,Wunderground v.1.15,2013-08-01 03:50:00,
2013-07-31 23:55:00,62.5,61.0,30.00,East,79,0.0,0.0,95,0.00,,,0.00,Wunderground v.1.15,2013-08-01 03:55:00,